sensor_id;sensor_type;location;lat;lon;timestamp;temperature;humidity
56771;DHT22;42641;59.794;17.616;2023-04-05T00:01:52;-2.30;99.90
56771;DHT22;42641;59.794;17.616;2023-04-05T00:04:18;-2.30;99.90
56771;DHT22;42641;59.794;17.616;2023-04-05T00:06:48;-2.30;99.90
56771;DHT22;42641;59.794;17.616;2023-04-05T00:09:19;-2.20;99.90
56771;DHT22;42641;59.794;17.616;2023-04-05T00:11:46;-2.30;99.90
56771;DHT22;42641;59.794;17.616;2023-04-05T00:14:13;-2.40;99.90
56771;DHT22;42641;59.794;17.616;2023-04-05T00:16:39;-2.40;99.90
56771;DHT22;42641;59.794;17.616;2023-04-05T00:19:06;-2.50;99.90
56771;DHT22;42641;59.794;17.616;2023-04-05T00:21:32;-2.50;99.90
56771;DHT22;42641;59.794;17.616;2023-04-05T00:23:59;-2.50;99.90
56771;DHT22;42641;59.794;17.616;2023-04-05T00:26:26;-2.50;99.90
56771;DHT22;42641;59.794;17.616;2023-04-05T00:28:56;-2.60;99.90
56771;DHT22;42641;59.794;17.616;2023-04-05T00:31:22;-2.60;99.90
56771;DHT22;42641;59.794;17.616;2023-04-05T00:33:49;-2.70;99.90
56771;DHT22;42641;59.794;17.616;2023-04-05T00:36:18;-2.70;99.90
56771;DHT22;42641;59.794;17.616;2023-04-05T00:38:45;-2.80;99.90
56771;DHT22;42641;59.794;17.616;2023-04-05T00:41:12;-2.80;99.90
56771;DHT22;42641;59.794;17.616;2023-04-05T00:43:40;-2.80;99.90
56771;DHT22;42641;59.794;17.616;2023-04-05T00:46:07;-2.80;99.90
56771;DHT22;42641;59.794;17.616;2023-04-05T00:48:34;-2.80;99.90
56771;DHT22;42641;59.794;17.616;2023-04-05T00:51:01;-2.80;99.90
56771;DHT22;42641;59.794;17.616;2023-04-05T00:53:28;-2.80;99.90
56771;DHT22;42641;59.794;17.616;2023-04-05T00:55:55;-2.70;99.90
56771;DHT22;42641;59.794;17.616;2023-04-05T00:58:22;-2.80;99.90
56771;DHT22;42641;59.794;17.616;2023-04-05T01:03:33;-2.80;99.90
56771;DHT22;42641;59.794;17.616;2023-04-05T01:11:32;-2.90;99.90
56771;DHT22;42641;59.794;17.616;2023-04-05T01:14:01;-3.00;99.90
56771;DHT22;42641;59.794;17.616;2023-04-05T01:16:28;-3.10;99.90
56771;DHT22;42641;59.794;17.616;2023-04-05T01:18:55;-3.10;99.90
56771;DHT22;42641;59.794;17.616;2023-04-05T01:25:01;-3.10;99.90
56771;DHT22;42641;59.794;17.616;2023-04-05T01:29:50;-3.20;99.90
56771;DHT22;42641;59.794;17.616;2023-04-05T01:33:09;-3.30;99.90
56771;DHT22;42641;59.794;17.616;2023-04-05T01:35:42;-3.30;99.90
56771;DHT22;42641;59.794;17.616;2023-04-05T01:38:16;-3.30;99.90
56771;DHT22;42641;59.794;17.616;2023-04-05T01:40:45;-3.40;99.90
56771;DHT22;42641;59.794;17.616;2023-04-05T01:43:13;-3.40;99.90
56771;DHT22;42641;59.794;17.616;2023-04-05T01:45:41;-3.40;99.90
56771;DHT22;42641;59.794;17.616;2023-04-05T01:48:09;-3.30;99.90
56771;DHT22;42641;59.794;17.616;2023-04-05T01:50:36;-3.30;99.90
56771;DHT22;42641;59.794;17.616;2023-04-05T01:53:03;-3.30;99.90
56771;DHT22;42641;59.794;17.616;2023-04-05T01:55:29;-3.20;99.90
56771;DHT22;42641;59.794;17.616;2023-04-05T01:57:56;-3.30;99.90
56771;DHT22;42641;59.794;17.616;2023-04-05T02:00:23;-3.30;99.90
56771;DHT22;42641;59.794;17.616;2023-04-05T02:02:51;-3.30;99.90
56771;DHT22;42641;59.794;17.616;2023-04-05T02:05:18;-3.40;99.90
56771;DHT22;42641;59.794;17.616;2023-04-05T02:07:44;-3.40;99.90
56771;DHT22;42641;59.794;17.616;2023-04-05T02:10:10;-3.40;99.90
56771;DHT22;42641;59.794;17.616;2023-04-05T02:12:38;-3.40;99.90
56771;DHT22;42641;59.794;17.616;2023-04-05T02:15:05;-3.50;99.90
56771;DHT22;42641;59.794;17.616;2023-04-05T02:17:33;-3.50;99.90
56771;DHT22;42641;59.794;17.616;2023-04-05T02:20:08;-3.50;99.90
56771;DHT22;42641;59.794;17.616;2023-04-05T02:22:37;-3.50;99.90
56771;DHT22;42641;59.794;17.616;2023-04-05T02:25:06;-3.60;99.90
56771;DHT22;42641;59.794;17.616;2023-04-05T02:27:37;-3.60;99.90
56771;DHT22;42641;59.794;17.616;2023-04-05T02:30:04;-3.60;99.90
56771;DHT22;42641;59.794;17.616;2023-04-05T02:32:31;-3.60;99.90
56771;DHT22;42641;59.794;17.616;2023-04-05T02:34:57;-3.60;99.90
56771;DHT22;42641;59.794;17.616;2023-04-05T02:37:24;-3.70;99.90
56771;DHT22;42641;59.794;17.616;2023-04-05T02:39:52;-3.70;99.90
56771;DHT22;42641;59.794;17.616;2023-04-05T02:42:19;-3.70;99.90
56771;DHT22;42641;59.794;17.616;2023-04-05T02:44:50;-3.70;99.90
56771;DHT22;42641;59.794;17.616;2023-04-05T02:47:18;-3.70;99.90
56771;DHT22;42641;59.794;17.616;2023-04-05T02:49:52;-3.70;99.90
56771;DHT22;42641;59.794;17.616;2023-04-05T02:52:18;-3.70;99.90
56771;DHT22;42641;59.794;17.616;2023-04-05T02:54:47;-3.70;99.90
56771;DHT22;42641;59.794;17.616;2023-04-05T02:57:19;-3.70;99.90
56771;DHT22;42641;59.794;17.616;2023-04-05T02:59:53;-3.80;99.90
56771;DHT22;42641;59.794;17.616;2023-04-05T03:02:21;-3.80;99.90
56771;DHT22;42641;59.794;17.616;2023-04-05T03:04:47;-3.80;99.90
56771;DHT22;42641;59.794;17.616;2023-04-05T03:07:16;-3.80;99.90
56771;DHT22;42641;59.794;17.616;2023-04-05T03:09:46;-3.80;99.90
56771;DHT22;42641;59.794;17.616;2023-04-05T03:12:13;-3.90;99.90
56771;DHT22;42641;59.794;17.616;2023-04-05T03:14:42;-3.90;99.90
56771;DHT22;42641;59.794;17.616;2023-04-05T03:17:12;-3.90;99.90
56771;DHT22;42641;59.794;17.616;2023-04-05T03:19:42;-4.00;99.90
56771;DHT22;42641;59.794;17.616;2023-04-05T03:22:18;-4.10;99.90
56771;DHT22;42641;59.794;17.616;2023-04-05T03:24:45;-4.10;99.90
56771;DHT22;42641;59.794;17.616;2023-04-05T03:27:14;-4.10;99.90
56771;DHT22;42641;59.794;17.616;2023-04-05T03:29:55;-4.10;99.90
56771;DHT22;42641;59.794;17.616;2023-04-05T03:32:22;-4.20;99.90
56771;DHT22;42641;59.794;17.616;2023-04-05T03:34:55;-4.20;99.90
56771;DHT22;42641;59.794;17.616;2023-04-05T03:37:22;-4.30;99.90
56771;DHT22;42641;59.794;17.616;2023-04-05T03:39:59;-4.30;99.90
56771;DHT22;42641;59.794;17.616;2023-04-05T03:42:25;-4.30;99.90
56771;DHT22;42641;59.794;17.616;2023-04-05T03:44:53;-4.30;99.90
56771;DHT22;42641;59.794;17.616;2023-04-05T03:47:19;-4.30;99.90
56771;DHT22;42641;59.794;17.616;2023-04-05T03:49:46;-4.30;99.90
56771;DHT22;42641;59.794;17.616;2023-04-05T03:52:12;-4.30;99.90
56771;DHT22;42641;59.794;17.616;2023-04-05T03:54:43;-4.30;99.90
56771;DHT22;42641;59.794;17.616;2023-04-05T03:57:10;-4.40;99.90
56771;DHT22;42641;59.794;17.616;2023-04-05T03:59:38;-4.30;99.90
56771;DHT22;42641;59.794;17.616;2023-04-05T04:02:08;-4.40;99.90
56771;DHT22;42641;59.794;17.616;2023-04-05T04:04:34;-4.40;99.90
56771;DHT22;42641;59.794;17.616;2023-04-05T04:07:00;-4.40;99.90
56771;DHT22;42641;59.794;17.616;2023-04-05T04:09:29;-4.30;99.90
56771;DHT22;42641;59.794;17.616;2023-04-05T04:12:02;-4.30;99.90
56771;DHT22;42641;59.794;17.616;2023-04-05T04:14:29;-4.30;99.90
56771;DHT22;42641;59.794;17.616;2023-04-05T04:16:56;-4.20;99.90
56771;DHT22;42641;59.794;17.616;2023-04-05T04:19:38;-4.20;99.90
56771;DHT22;42641;59.794;17.616;2023-04-05T04:22:23;-4.30;99.90
56771;DHT22;42641;59.794;17.616;2023-04-05T04:25:11;-4.30;99.90
56771;DHT22;42641;59.794;17.616;2023-04-05T04:28:10;-4.30;99.90
56771;DHT22;42641;59.794;17.616;2023-04-05T04:30:50;-4.30;99.90
56771;DHT22;42641;59.794;17.616;2023-04-05T04:33:52;-4.20;99.90
56771;DHT22;42641;59.794;17.616;2023-04-05T04:36:39;-4.10;99.90
56771;DHT22;42641;59.794;17.616;2023-04-05T04:39:39;-4.00;99.90
56771;DHT22;42641;59.794;17.616;2023-04-05T04:42:33;-3.90;99.90
56771;DHT22;42641;59.794;17.616;2023-04-05T04:45:22;-3.80;99.90
56771;DHT22;42641;59.794;17.616;2023-04-05T04:48:10;-3.70;99.90
56771;DHT22;42641;59.794;17.616;2023-04-05T04:50:47;-3.70;99.90
56771;DHT22;42641;59.794;17.616;2023-04-05T04:53:15;-3.70;99.90
56771;DHT22;42641;59.794;17.616;2023-04-05T04:55:44;-3.60;99.90
56771;DHT22;42641;59.794;17.616;2023-04-05T04:58:11;-3.60;99.90
56771;DHT22;42641;59.794;17.616;2023-04-05T05:00:43;-3.50;99.90
56771;DHT22;42641;59.794;17.616;2023-04-05T05:03:10;-3.50;99.90
56771;DHT22;42641;59.794;17.616;2023-04-05T05:05:44;-3.50;99.90
56771;DHT22;42641;59.794;17.616;2023-04-05T05:08:12;-3.50;99.90
56771;DHT22;42641;59.794;17.616;2023-04-05T05:10:40;-3.50;99.90
56771;DHT22;42641;59.794;17.616;2023-04-05T05:13:07;-3.50;99.90
56771;DHT22;42641;59.794;17.616;2023-04-05T05:15:34;-3.50;99.90
56771;DHT22;42641;59.794;17.616;2023-04-05T05:18:00;-3.50;99.90
56771;DHT22;42641;59.794;17.616;2023-04-05T05:20:28;-3.40;99.90
56771;DHT22;42641;59.794;17.616;2023-04-05T05:22:55;-3.40;99.90
56771;DHT22;42641;59.794;17.616;2023-04-05T05:25:21;-3.30;99.90
56771;DHT22;42641;59.794;17.616;2023-04-05T05:27:48;-3.20;99.90
56771;DHT22;42641;59.794;17.616;2023-04-05T05:30:16;-3.10;99.90
56771;DHT22;42641;59.794;17.616;2023-04-05T05:32:43;-3.00;99.90
56771;DHT22;42641;59.794;17.616;2023-04-05T05:35:09;-2.80;99.90
56771;DHT22;42641;59.794;17.616;2023-04-05T05:37:36;-2.60;99.90
56771;DHT22;42641;59.794;17.616;2023-04-05T05:40:03;-2.50;99.90
56771;DHT22;42641;59.794;17.616;2023-04-05T05:42:30;-2.30;99.90
56771;DHT22;42641;59.794;17.616;2023-04-05T05:45:03;-2.20;99.90
56771;DHT22;42641;59.794;17.616;2023-04-05T05:47:30;-2.10;99.90
56771;DHT22;42641;59.794;17.616;2023-04-05T05:49:56;-1.90;99.90
56771;DHT22;42641;59.794;17.616;2023-04-05T05:52:23;-1.80;99.90
56771;DHT22;42641;59.794;17.616;2023-04-05T05:54:49;-1.70;99.90
56771;DHT22;42641;59.794;17.616;2023-04-05T05:57:16;-1.60;99.90
56771;DHT22;42641;59.794;17.616;2023-04-05T05:59:42;-1.50;99.90
56771;DHT22;42641;59.794;17.616;2023-04-05T06:02:09;-1.40;99.90
56771;DHT22;42641;59.794;17.616;2023-04-05T06:04:35;-1.30;99.90
56771;DHT22;42641;59.794;17.616;2023-04-05T06:07:03;-1.20;99.90
56771;DHT22;42641;59.794;17.616;2023-04-05T06:09:29;-1.20;99.90
56771;DHT22;42641;59.794;17.616;2023-04-05T06:11:56;-1.00;99.90
56771;DHT22;42641;59.794;17.616;2023-04-05T06:14:24;-0.90;99.90
56771;DHT22;42641;59.794;17.616;2023-04-05T06:16:50;-0.80;99.90
56771;DHT22;42641;59.794;17.616;2023-04-05T06:19:17;-0.80;99.90
56771;DHT22;42641;59.794;17.616;2023-04-05T06:21:43;-0.70;99.90
56771;DHT22;42641;59.794;17.616;2023-04-05T06:24:10;-0.60;99.90
56771;DHT22;42641;59.794;17.616;2023-04-05T06:26:37;-0.60;99.90
56771;DHT22;42641;59.794;17.616;2023-04-05T06:29:03;-0.50;99.90
56771;DHT22;42641;59.794;17.616;2023-04-05T06:31:31;-0.50;99.90
56771;DHT22;42641;59.794;17.616;2023-04-05T06:33:58;-0.40;99.90
56771;DHT22;42641;59.794;17.616;2023-04-05T06:36:25;-0.30;99.90
56771;DHT22;42641;59.794;17.616;2023-04-05T06:38:52;-0.30;99.90
56771;DHT22;42641;59.794;17.616;2023-04-05T06:41:18;-0.20;99.90
56771;DHT22;42641;59.794;17.616;2023-04-05T06:43:44;-0.10;99.90
56771;DHT22;42641;59.794;17.616;2023-04-05T06:46:11;-0.10;99.90
56771;DHT22;42641;59.794;17.616;2023-04-05T06:48:38;-0.10;99.90
56771;DHT22;42641;59.794;17.616;2023-04-05T06:51:05;-0.10;99.90
56771;DHT22;42641;59.794;17.616;2023-04-05T06:53:31;0.00;99.90
56771;DHT22;42641;59.794;17.616;2023-04-05T06:55:58;0.00;99.90
56771;DHT22;42641;59.794;17.616;2023-04-05T06:58:25;-0.10;99.90
56771;DHT22;42641;59.794;17.616;2023-04-05T07:00:53;0.10;99.90
56771;DHT22;42641;59.794;17.616;2023-04-05T07:03:19;0.20;99.90
56771;DHT22;42641;59.794;17.616;2023-04-05T07:05:53;0.20;99.90
56771;DHT22;42641;59.794;17.616;2023-04-05T07:08:20;0.20;99.90
56771;DHT22;42641;59.794;17.616;2023-04-05T07:10:47;0.20;99.90
56771;DHT22;42641;59.794;17.616;2023-04-05T07:13:14;0.30;99.90
56771;DHT22;42641;59.794;17.616;2023-04-05T07:15:43;0.40;99.90
56771;DHT22;42641;59.794;17.616;2023-04-05T07:18:10;0.40;99.90
56771;DHT22;42641;59.794;17.616;2023-04-05T07:20:37;0.50;99.90
56771;DHT22;42641;59.794;17.616;2023-04-05T07:23:04;0.50;99.90
56771;DHT22;42641;59.794;17.616;2023-04-05T07:25:33;0.60;99.90
56771;DHT22;42641;59.794;17.616;2023-04-05T07:27:59;0.60;99.90
56771;DHT22;42641;59.794;17.616;2023-04-05T07:30:26;0.70;99.90
56771;DHT22;42641;59.794;17.616;2023-04-05T07:32:53;0.70;99.90
56771;DHT22;42641;59.794;17.616;2023-04-05T07:35:20;0.70;99.90
56771;DHT22;42641;59.794;17.616;2023-04-05T07:37:46;0.80;99.90
56771;DHT22;42641;59.794;17.616;2023-04-05T07:40:13;0.80;99.90
56771;DHT22;42641;59.794;17.616;2023-04-05T07:42:39;0.90;99.90
56771;DHT22;42641;59.794;17.616;2023-04-05T07:45:06;1.00;99.90
56771;DHT22;42641;59.794;17.616;2023-04-05T07:47:33;1.20;99.90
56771;DHT22;42641;59.794;17.616;2023-04-05T07:50:00;1.30;99.90
56771;DHT22;42641;59.794;17.616;2023-04-05T07:52:27;1.40;99.90
56771;DHT22;42641;59.794;17.616;2023-04-05T07:54:54;1.50;99.90
56771;DHT22;42641;59.794;17.616;2023-04-05T07:57:21;1.60;99.90
56771;DHT22;42641;59.794;17.616;2023-04-05T07:59:48;1.60;99.90
56771;DHT22;42641;59.794;17.616;2023-04-05T08:02:18;1.70;99.90
56771;DHT22;42641;59.794;17.616;2023-04-05T08:04:44;1.90;99.90
56771;DHT22;42641;59.794;17.616;2023-04-05T08:07:11;2.10;99.90
56771;DHT22;42641;59.794;17.616;2023-04-05T08:09:37;2.20;99.90
56771;DHT22;42641;59.794;17.616;2023-04-05T08:12:04;2.40;99.90
56771;DHT22;42641;59.794;17.616;2023-04-05T08:14:31;2.50;99.90
56771;DHT22;42641;59.794;17.616;2023-04-05T08:17:00;2.60;99.90
56771;DHT22;42641;59.794;17.616;2023-04-05T08:19:26;2.70;99.90
56771;DHT22;42641;59.794;17.616;2023-04-05T08:21:53;2.90;99.90
56771;DHT22;42641;59.794;17.616;2023-04-05T08:24:19;3.10;99.90
56771;DHT22;42641;59.794;17.616;2023-04-05T08:26:46;3.10;99.90
56771;DHT22;42641;59.794;17.616;2023-04-05T08:29:12;3.20;99.90
56771;DHT22;42641;59.794;17.616;2023-04-05T08:31:39;3.30;99.90
56771;DHT22;42641;59.794;17.616;2023-04-05T08:34:05;3.40;99.90
56771;DHT22;42641;59.794;17.616;2023-04-05T08:36:33;3.50;99.90
56771;DHT22;42641;59.794;17.616;2023-04-05T08:38:59;3.60;99.90
56771;DHT22;42641;59.794;17.616;2023-04-05T08:41:33;3.50;99.90
56771;DHT22;42641;59.794;17.616;2023-04-05T08:44:01;3.40;99.90
56771;DHT22;42641;59.794;17.616;2023-04-05T08:46:32;3.50;99.90
56771;DHT22;42641;59.794;17.616;2023-04-05T08:49:03;3.60;99.90
56771;DHT22;42641;59.794;17.616;2023-04-05T08:51:30;3.70;99.90
56771;DHT22;42641;59.794;17.616;2023-04-05T08:53:58;3.80;99.90
56771;DHT22;42641;59.794;17.616;2023-04-05T08:56:33;3.80;99.90
56771;DHT22;42641;59.794;17.616;2023-04-05T08:59:07;3.90;99.90
56771;DHT22;42641;59.794;17.616;2023-04-05T09:01:43;3.90;99.90
56771;DHT22;42641;59.794;17.616;2023-04-05T09:04:31;4.00;99.90
56771;DHT22;42641;59.794;17.616;2023-04-05T09:07:03;4.10;99.90
56771;DHT22;42641;59.794;17.616;2023-04-05T09:09:32;4.20;99.90
56771;DHT22;42641;59.794;17.616;2023-04-05T09:12:03;4.30;99.90
56771;DHT22;42641;59.794;17.616;2023-04-05T09:14:32;4.40;99.90
56771;DHT22;42641;59.794;17.616;2023-04-05T09:17:01;4.60;99.90
56771;DHT22;42641;59.794;17.616;2023-04-05T09:19:29;4.70;99.90
56771;DHT22;42641;59.794;17.616;2023-04-05T09:29:40;5.50;99.90
56771;DHT22;42641;59.794;17.616;2023-04-05T09:32:08;5.60;99.40
56771;DHT22;42641;59.794;17.616;2023-04-05T09:34:35;5.50;99.40
56771;DHT22;42641;59.794;17.616;2023-04-05T09:37:14;5.60;98.20
56771;DHT22;42641;59.794;17.616;2023-04-05T09:39:41;5.60;97.80
56771;DHT22;42641;59.794;17.616;2023-04-05T09:42:13;5.40;97.00
56771;DHT22;42641;59.794;17.616;2023-04-05T09:47:20;5.10;96.70
56771;DHT22;42641;59.794;17.616;2023-04-05T09:49:51;5.10;96.70
56771;DHT22;42641;59.794;17.616;2023-04-05T09:52:23;5.20;97.50
56771;DHT22;42641;59.794;17.616;2023-04-05T09:54:55;5.30;95.90
56771;DHT22;42641;59.794;17.616;2023-04-05T09:57:23;5.30;96.70
56771;DHT22;42641;59.794;17.616;2023-04-05T09:59:53;5.10;94.80
56771;DHT22;42641;59.794;17.616;2023-04-05T10:02:21;5.10;94.50
56771;DHT22;42641;59.794;17.616;2023-04-05T10:04:48;5.00;94.30
56771;DHT22;42641;59.794;17.616;2023-04-05T10:07:16;5.20;95.60
56771;DHT22;42641;59.794;17.616;2023-04-05T10:09:45;5.10;94.20
56771;DHT22;42641;59.794;17.616;2023-04-05T10:12:24;5.20;94.50
56771;DHT22;42641;59.794;17.616;2023-04-05T10:14:52;5.20;94.40
56771;DHT22;42641;59.794;17.616;2023-04-05T10:17:27;5.20;93.90
56771;DHT22;42641;59.794;17.616;2023-04-05T10:20:23;5.30;93.70
56771;DHT22;42641;59.794;17.616;2023-04-05T10:23:11;5.40;93.90
56771;DHT22;42641;59.794;17.616;2023-04-05T10:25:58;5.60;94.30
56771;DHT22;42641;59.794;17.616;2023-04-05T10:31:01;5.70;93.10
56771;DHT22;42641;59.794;17.616;2023-04-05T10:33:41;5.80;92.70
56771;DHT22;42641;59.794;17.616;2023-04-05T10:36:11;5.80;92.40
56771;DHT22;42641;59.794;17.616;2023-04-05T10:41:36;5.80;92.40
56771;DHT22;42641;59.794;17.616;2023-04-05T10:44:04;5.90;93.10
56771;DHT22;42641;59.794;17.616;2023-04-05T10:46:33;5.90;93.60
56771;DHT22;42641;59.794;17.616;2023-04-05T10:49:21;6.00;93.10
56771;DHT22;42641;59.794;17.616;2023-04-05T10:51:53;5.90;93.40
56771;DHT22;42641;59.794;17.616;2023-04-05T10:54:21;5.70;93.80
56771;DHT22;42641;59.794;17.616;2023-04-05T10:56:48;5.60;93.30
56771;DHT22;42641;59.794;17.616;2023-04-05T10:59:16;5.40;93.60
56771;DHT22;42641;59.794;17.616;2023-04-05T11:01:46;5.50;94.40
56771;DHT22;42641;59.794;17.616;2023-04-05T11:04:14;5.60;96.00
56771;DHT22;42641;59.794;17.616;2023-04-05T11:06:41;5.60;96.00
56771;DHT22;42641;59.794;17.616;2023-04-05T11:09:17;5.60;97.00
56771;DHT22;42641;59.794;17.616;2023-04-05T11:11:45;5.50;97.40
56771;DHT22;42641;59.794;17.616;2023-04-05T11:14:26;5.50;97.10
56771;DHT22;42641;59.794;17.616;2023-04-05T11:17:00;5.30;98.00
56771;DHT22;42641;59.794;17.616;2023-04-05T11:22:13;5.30;98.60
56771;DHT22;42641;59.794;17.616;2023-04-05T11:24:56;5.30;98.80
56771;DHT22;42641;59.794;17.616;2023-04-05T11:27:31;5.20;99.00
56771;DHT22;42641;59.794;17.616;2023-04-05T11:30:00;5.10;99.10
56771;DHT22;42641;59.794;17.616;2023-04-05T11:32:53;5.30;99.40
56771;DHT22;42641;59.794;17.616;2023-04-05T11:35:19;5.40;99.80
56771;DHT22;42641;59.794;17.616;2023-04-05T11:40:33;5.40;99.50
56771;DHT22;42641;59.794;17.616;2023-04-05T11:43:08;5.60;99.60
56771;DHT22;42641;59.794;17.616;2023-04-05T11:45:37;5.60;99.90
56771;DHT22;42641;59.794;17.616;2023-04-05T11:48:05;5.70;99.90
56771;DHT22;42641;59.794;17.616;2023-04-05T11:50:32;5.70;99.90
56771;DHT22;42641;59.794;17.616;2023-04-05T11:53:13;5.50;99.90
56771;DHT22;42641;59.794;17.616;2023-04-05T11:55:42;5.20;99.90
56771;DHT22;42641;59.794;17.616;2023-04-05T11:58:17;5.30;99.90
56771;DHT22;42641;59.794;17.616;2023-04-05T12:00:45;5.20;99.90
56771;DHT22;42641;59.794;17.616;2023-04-05T12:03:13;5.20;99.90
56771;DHT22;42641;59.794;17.616;2023-04-05T12:05:50;5.00;99.90
56771;DHT22;42641;59.794;17.616;2023-04-05T12:08:18;4.80;99.90
56771;DHT22;42641;59.794;17.616;2023-04-05T12:10:56;4.80;99.90
56771;DHT22;42641;59.794;17.616;2023-04-05T12:13:32;4.60;99.90
56771;DHT22;42641;59.794;17.616;2023-04-05T12:16:00;4.50;99.90
56771;DHT22;42641;59.794;17.616;2023-04-05T12:18:31;4.50;99.90
56771;DHT22;42641;59.794;17.616;2023-04-05T12:20:58;4.20;99.90
56771;DHT22;42641;59.794;17.616;2023-04-05T12:23:27;4.00;99.90
56771;DHT22;42641;59.794;17.616;2023-04-05T12:25:55;3.90;99.90
56771;DHT22;42641;59.794;17.616;2023-04-05T12:28:24;3.80;99.90
56771;DHT22;42641;59.794;17.616;2023-04-05T12:30:52;3.60;99.90
56771;DHT22;42641;59.794;17.616;2023-04-05T12:33:30;3.60;99.90
56771;DHT22;42641;59.794;17.616;2023-04-05T12:35:58;3.60;99.90
56771;DHT22;42641;59.794;17.616;2023-04-05T12:38:29;3.50;99.90
56771;DHT22;42641;59.794;17.616;2023-04-05T12:41:00;3.40;99.90
56771;DHT22;42641;59.794;17.616;2023-04-05T12:43:40;3.40;99.90
56771;DHT22;42641;59.794;17.616;2023-04-05T12:46:14;3.30;99.90
56771;DHT22;42641;59.794;17.616;2023-04-05T12:48:41;3.30;99.90
56771;DHT22;42641;59.794;17.616;2023-04-05T12:51:15;3.10;99.90
56771;DHT22;42641;59.794;17.616;2023-04-05T12:53:45;3.00;99.90
56771;DHT22;42641;59.794;17.616;2023-04-05T12:56:14;2.80;99.90
56771;DHT22;42641;59.794;17.616;2023-04-05T12:58:41;2.80;99.90
56771;DHT22;42641;59.794;17.616;2023-04-05T13:01:08;2.80;99.90
56771;DHT22;42641;59.794;17.616;2023-04-05T13:03:35;2.90;99.90
56771;DHT22;42641;59.794;17.616;2023-04-05T13:06:02;2.80;99.90
56771;DHT22;42641;59.794;17.616;2023-04-05T13:08:28;2.90;99.90
56771;DHT22;42641;59.794;17.616;2023-04-05T13:10:55;2.90;99.90
56771;DHT22;42641;59.794;17.616;2023-04-05T13:13:22;2.90;99.90
56771;DHT22;42641;59.794;17.616;2023-04-05T13:15:48;2.90;99.90
56771;DHT22;42641;59.794;17.616;2023-04-05T13:18:15;2.80;99.90
56771;DHT22;42641;59.794;17.616;2023-04-05T13:20:41;2.80;99.90
56771;DHT22;42641;59.794;17.616;2023-04-05T13:23:08;2.80;99.90
56771;DHT22;42641;59.794;17.616;2023-04-05T13:25:40;2.80;99.90
56771;DHT22;42641;59.794;17.616;2023-04-05T13:28:08;2.80;99.90
56771;DHT22;42641;59.794;17.616;2023-04-05T13:30:34;2.80;99.90
56771;DHT22;42641;59.794;17.616;2023-04-05T13:33:01;2.80;99.90
56771;DHT22;42641;59.794;17.616;2023-04-05T13:35:29;2.70;99.90
56771;DHT22;42641;59.794;17.616;2023-04-05T13:37:56;2.70;99.90
56771;DHT22;42641;59.794;17.616;2023-04-05T13:40:23;2.80;99.90
56771;DHT22;42641;59.794;17.616;2023-04-05T13:42:49;2.80;99.90
56771;DHT22;42641;59.794;17.616;2023-04-05T13:45:15;2.80;99.90
56771;DHT22;42641;59.794;17.616;2023-04-05T13:47:42;2.80;99.90
56771;DHT22;42641;59.794;17.616;2023-04-05T13:50:09;2.90;99.90
56771;DHT22;42641;59.794;17.616;2023-04-05T13:52:35;2.90;99.90
56771;DHT22;42641;59.794;17.616;2023-04-05T13:55:02;2.80;99.90
56771;DHT22;42641;59.794;17.616;2023-04-05T13:57:29;2.80;99.90
56771;DHT22;42641;59.794;17.616;2023-04-05T13:59:56;2.80;99.90
56771;DHT22;42641;59.794;17.616;2023-04-05T14:02:22;2.80;99.90
56771;DHT22;42641;59.794;17.616;2023-04-05T14:04:54;2.80;99.90
56771;DHT22;42641;59.794;17.616;2023-04-05T14:07:21;2.80;99.90
56771;DHT22;42641;59.794;17.616;2023-04-05T14:09:48;2.50;99.90
56771;DHT22;42641;59.794;17.616;2023-04-05T14:12:14;2.50;99.90
56771;DHT22;42641;59.794;17.616;2023-04-05T14:14:41;2.50;99.90
56771;DHT22;42641;59.794;17.616;2023-04-05T14:17:07;2.50;99.90
56771;DHT22;42641;59.794;17.616;2023-04-05T14:19:35;2.50;99.90
56771;DHT22;42641;59.794;17.616;2023-04-05T14:22:02;2.60;99.90
56771;DHT22;42641;59.794;17.616;2023-04-05T14:24:28;2.70;99.90
56771;DHT22;42641;59.794;17.616;2023-04-05T14:26:54;2.70;99.90
56771;DHT22;42641;59.794;17.616;2023-04-05T14:29:21;2.70;99.90
56771;DHT22;42641;59.794;17.616;2023-04-05T14:31:48;2.70;99.90
56771;DHT22;42641;59.794;17.616;2023-04-05T14:34:14;2.70;99.90
56771;DHT22;42641;59.794;17.616;2023-04-05T14:36:41;2.60;99.90
56771;DHT22;42641;59.794;17.616;2023-04-05T14:39:07;2.70;99.90
56771;DHT22;42641;59.794;17.616;2023-04-05T14:41:34;2.70;99.90
56771;DHT22;42641;59.794;17.616;2023-04-05T14:44:00;2.70;99.90
56771;DHT22;42641;59.794;17.616;2023-04-05T14:46:27;2.60;99.90
56771;DHT22;42641;59.794;17.616;2023-04-05T14:48:53;2.70;99.90
56771;DHT22;42641;59.794;17.616;2023-04-05T14:51:20;2.60;99.90
56771;DHT22;42641;59.794;17.616;2023-04-05T14:53:47;2.60;99.90
56771;DHT22;42641;59.794;17.616;2023-04-05T14:56:13;2.70;99.90
56771;DHT22;42641;59.794;17.616;2023-04-05T14:58:40;2.60;99.90
56771;DHT22;42641;59.794;17.616;2023-04-05T15:01:06;2.60;99.90
56771;DHT22;42641;59.794;17.616;2023-04-05T15:03:36;2.50;99.90
56771;DHT22;42641;59.794;17.616;2023-04-05T15:06:03;2.50;99.90
56771;DHT22;42641;59.794;17.616;2023-04-05T15:08:30;2.50;99.90
56771;DHT22;42641;59.794;17.616;2023-04-05T15:10:57;2.40;99.90
56771;DHT22;42641;59.794;17.616;2023-04-05T15:13:24;2.40;99.90
56771;DHT22;42641;59.794;17.616;2023-04-05T15:15:52;2.30;99.90
56771;DHT22;42641;59.794;17.616;2023-04-05T15:18:18;2.30;99.90
56771;DHT22;42641;59.794;17.616;2023-04-05T15:20:45;2.20;99.90
56771;DHT22;42641;59.794;17.616;2023-04-05T15:23:12;2.30;99.90
56771;DHT22;42641;59.794;17.616;2023-04-05T15:25:38;2.30;99.90
56771;DHT22;42641;59.794;17.616;2023-04-05T15:28:05;2.20;99.90
56771;DHT22;42641;59.794;17.616;2023-04-05T15:30:31;2.30;99.90
56771;DHT22;42641;59.794;17.616;2023-04-05T15:32:58;2.30;99.90
56771;DHT22;42641;59.794;17.616;2023-04-05T15:35:25;2.20;99.90
56771;DHT22;42641;59.794;17.616;2023-04-05T15:37:51;2.20;99.90
56771;DHT22;42641;59.794;17.616;2023-04-05T15:40:18;2.30;99.90
56771;DHT22;42641;59.794;17.616;2023-04-05T15:42:44;2.30;99.90
56771;DHT22;42641;59.794;17.616;2023-04-05T15:45:11;2.30;99.90
56771;DHT22;42641;59.794;17.616;2023-04-05T15:47:38;2.30;99.90
56771;DHT22;42641;59.794;17.616;2023-04-05T15:50:05;2.30;99.90
56771;DHT22;42641;59.794;17.616;2023-04-05T15:52:33;2.30;99.90
56771;DHT22;42641;59.794;17.616;2023-04-05T15:55:00;2.30;99.90
56771;DHT22;42641;59.794;17.616;2023-04-05T15:57:26;2.20;99.90
56771;DHT22;42641;59.794;17.616;2023-04-05T15:59:53;2.20;99.90
56771;DHT22;42641;59.794;17.616;2023-04-05T16:02:19;2.20;99.90
56771;DHT22;42641;59.794;17.616;2023-04-05T16:04:46;2.30;99.90
56771;DHT22;42641;59.794;17.616;2023-04-05T16:07:12;2.30;99.90
56771;DHT22;42641;59.794;17.616;2023-04-05T16:09:39;2.20;99.90
56771;DHT22;42641;59.794;17.616;2023-04-05T16:12:05;2.30;99.90
56771;DHT22;42641;59.794;17.616;2023-04-05T16:14:32;2.30;99.90